Hastings, North Dakota
Current Conditions -  °F | °C
As of 12:15 PM on Wednesday 28 Jan 2015 (Local Time) from KBAC Reporting Station
Haze Haze  
Wind Chill: 32°   Ceiling: 200
Heat Index: 32°   Visibility: 1.7mi
Dew Point: 32°   Wind: 3mph
Humidity: 100%   Direction: 230°SW
Pressure: 29.74"   Gusts: NA
Location:  46.7176°N, 97.9974°W
Report Text: KBAC 281815Z AUTO 23003KT 1 3/4SM BR OVC002 00/00 A2974 RMK AO2
Loading
Personal Weather Stations






























Interactive Weather Map New forecast layout! Learn more

10-Day Weather Forecast

Advertisements
Track Severe Weather on mobile